sensor_id;sensor_type;location;lat;lon;timestamp;P1;durP1;ratioP1;P2;durP2;ratioP2
7783;SDS011;19359;51.402;6.778;2023-03-31T00:00:18;2.53;;;0.80;;
7783;SDS011;19359;51.402;6.778;2023-03-31T00:02:46;3.65;;;0.70;;
7783;SDS011;19359;51.402;6.778;2023-03-31T00:05:12;1.80;;;0.68;;
7783;SDS011;19359;51.402;6.778;2023-03-31T00:07:42;2.75;;;1.02;;
7783;SDS011;19359;51.402;6.778;2023-03-31T00:10:10;3.90;;;0.60;;
7783;SDS011;19359;51.402;6.778;2023-03-31T00:12:36;3.22;;;0.63;;
7783;SDS011;19359;51.402;6.778;2023-03-31T00:15:03;1.70;;;0.70;;
7783;SDS011;19359;51.402;6.778;2023-03-31T00:17:30;4.00;;;0.63;;
7783;SDS011;19359;51.402;6.778;2023-03-31T00:19:59;2.72;;;0.85;;
7783;SDS011;19359;51.402;6.778;2023-03-31T00:22:28;2.28;;;0.57;;
7783;SDS011;19359;51.402;6.778;2023-03-31T00:24:55;5.05;;;0.70;;
7783;SDS011;19359;51.402;6.778;2023-03-31T00:27:22;3.33;;;0.75;;
7783;SDS011;19359;51.402;6.778;2023-03-31T00:29:49;1.13;;;0.40;;
7783;SDS011;19359;51.402;6.778;2023-03-31T00:32:17;4.78;;;0.68;;
7783;SDS011;19359;51.402;6.778;2023-03-31T00:34:44;5.45;;;0.63;;
7783;SDS011;19359;51.402;6.778;2023-03-31T00:37:12;4.78;;;0.80;;
7783;SDS011;19359;51.402;6.778;2023-03-31T00:39:40;3.25;;;0.45;;
7783;SDS011;19359;51.402;6.778;2023-03-31T00:42:08;3.85;;;0.98;;
7783;SDS011;19359;51.402;6.778;2023-03-31T00:44:37;2.17;;;0.50;;
7783;SDS011;19359;51.402;6.778;2023-03-31T00:47:24;6.97;;;0.98;;
7783;SDS011;19359;51.402;6.778;2023-03-31T00:49:54;2.60;;;0.50;;
7783;SDS011;19359;51.402;6.778;2023-03-31T00:52:24;2.63;;;0.70;;
7783;SDS011;19359;51.402;6.778;2023-03-31T00:54:55;5.82;;;0.82;;
7783;SDS011;19359;51.402;6.778;2023-03-31T00:57:23;5.22;;;0.85;;
7783;SDS011;19359;51.402;6.778;2023-03-31T00:59:52;2.70;;;0.70;;
7783;SDS011;19359;51.402;6.778;2023-03-31T01:02:23;3.53;;;0.65;;
7783;SDS011;19359;51.402;6.778;2023-03-31T01:04:51;8.75;;;0.70;;
7783;SDS011;19359;51.402;6.778;2023-03-31T01:07:25;2.80;;;0.70;;
7783;SDS011;19359;51.402;6.778;2023-03-31T01:09:58;2.53;;;1.00;;
7783;SDS011;19359;51.402;6.778;2023-03-31T01:12:29;5.57;;;0.80;;
7783;SDS011;19359;51.402;6.778;2023-03-31T01:14:57;3.72;;;1.08;;
7783;SDS011;19359;51.402;6.778;2023-03-31T01:17:26;2.92;;;0.90;;
7783;SDS011;19359;51.402;6.778;2023-03-31T01:19:56;5.75;;;0.98;;
7783;SDS011;19359;51.402;6.778;2023-03-31T01:22:56;4.55;;;0.65;;
7783;SDS011;19359;51.402;6.778;2023-03-31T01:28:45;4.47;;;0.80;;
7783;SDS011;19359;51.402;6.778;2023-03-31T01:31:21;4.13;;;0.93;;
7783;SDS011;19359;51.402;6.778;2023-03-31T01:34:22;0.90;;;0.75;;
7783;SDS011;19359;51.402;6.778;2023-03-31T01:37:21;3.95;;;0.60;;
7783;SDS011;19359;51.402;6.778;2023-03-31T01:43:20;3.72;;;0.80;;
7783;SDS011;19359;51.402;6.778;2023-03-31T01:45:53;9.52;;;1.27;;
7783;SDS011;19359;51.402;6.778;2023-03-31T01:48:29;2.38;;;0.70;;
7783;SDS011;19359;51.402;6.778;2023-03-31T01:51:03;6.38;;;0.93;;
7783;SDS011;19359;51.402;6.778;2023-03-31T01:53:34;1.00;;;0.40;;
7783;SDS011;19359;51.402;6.778;2023-03-31T01:56:10;3.50;;;0.75;;
7783;SDS011;19359;51.402;6.778;2023-03-31T01:58:42;2.30;;;0.80;;
7783;SDS011;19359;51.402;6.778;2023-03-31T02:01:15;2.85;;;0.60;;
7783;SDS011;19359;51.402;6.778;2023-03-31T02:03:47;6.35;;;0.60;;
7783;SDS011;19359;51.402;6.778;2023-03-31T02:06:20;6.97;;;0.70;;
7783;SDS011;19359;51.402;6.778;2023-03-31T02:08:50;1.48;;;0.98;;
7783;SDS011;19359;51.402;6.778;2023-03-31T02:11:23;1.27;;;0.70;;
7783;SDS011;19359;51.402;6.778;2023-03-31T02:13:53;4.03;;;0.57;;
7783;SDS011;19359;51.402;6.778;2023-03-31T02:16:22;6.40;;;1.15;;
7783;SDS011;19359;51.402;6.778;2023-03-31T02:18:52;6.40;;;0.70;;
7783;SDS011;19359;51.402;6.778;2023-03-31T02:21:26;6.85;;;0.70;;
7783;SDS011;19359;51.402;6.778;2023-03-31T02:23:53;6.15;;;0.60;;
7783;SDS011;19359;51.402;6.778;2023-03-31T02:26:22;5.00;;;1.13;;
7783;SDS011;19359;51.402;6.778;2023-03-31T02:28:53;2.92;;;0.60;;
7783;SDS011;19359;51.402;6.778;2023-03-31T02:31:22;11.15;;;1.13;;
7783;SDS011;19359;51.402;6.778;2023-03-31T02:33:54;4.18;;;1.10;;
7783;SDS011;19359;51.402;6.778;2023-03-31T02:36:21;2.88;;;1.50;;
7783;SDS011;19359;51.402;6.778;2023-03-31T02:38:49;4.93;;;1.05;;
7783;SDS011;19359;51.402;6.778;2023-03-31T02:41:19;3.90;;;0.75;;
7783;SDS011;19359;51.402;6.778;2023-03-31T02:43:48;9.50;;;1.05;;
7783;SDS011;19359;51.402;6.778;2023-03-31T02:46:15;2.58;;;0.80;;
7783;SDS011;19359;51.402;6.778;2023-03-31T02:48:42;8.98;;;1.42;;
7783;SDS011;19359;51.402;6.778;2023-03-31T02:54:18;3.70;;;0.65;;
7783;SDS011;19359;51.402;6.778;2023-03-31T02:57:04;15.70;;;1.63;;
7783;SDS011;19359;51.402;6.778;2023-03-31T02:59:57;9.13;;;1.27;;
7783;SDS011;19359;51.402;6.778;2023-03-31T03:02:36;8.57;;;1.25;;
7783;SDS011;19359;51.402;6.778;2023-03-31T03:05:13;7.00;;;1.05;;
7783;SDS011;19359;51.402;6.778;2023-03-31T03:07:47;10.55;;;1.40;;
7783;SDS011;19359;51.402;6.778;2023-03-31T03:10:25;6.07;;;1.42;;
7783;SDS011;19359;51.402;6.778;2023-03-31T03:12:56;2.53;;;1.15;;
7783;SDS011;19359;51.402;6.778;2023-03-31T03:15:31;3.40;;;1.02;;
7783;SDS011;19359;51.402;6.778;2023-03-31T03:18:01;12.10;;;1.17;;
7783;SDS011;19359;51.402;6.778;2023-03-31T03:20:30;4.80;;;1.58;;
7783;SDS011;19359;51.402;6.778;2023-03-31T03:22:59;10.57;;;1.70;;
7783;SDS011;19359;51.402;6.778;2023-03-31T03:25:26;9.73;;;1.52;;
7783;SDS011;19359;51.402;6.778;2023-03-31T03:27:54;8.50;;;1.48;;
7783;SDS011;19359;51.402;6.778;2023-03-31T03:30:21;8.02;;;1.88;;
7783;SDS011;19359;51.402;6.778;2023-03-31T03:32:49;7.88;;;1.50;;
7783;SDS011;19359;51.402;6.778;2023-03-31T03:35:15;9.90;;;1.67;;
7783;SDS011;19359;51.402;6.778;2023-03-31T03:37:43;8.32;;;1.45;;
7783;SDS011;19359;51.402;6.778;2023-03-31T03:40:10;4.80;;;0.90;;
7783;SDS011;19359;51.402;6.778;2023-03-31T03:42:37;11.10;;;1.58;;
7783;SDS011;19359;51.402;6.778;2023-03-31T03:45:04;9.30;;;1.55;;
7783;SDS011;19359;51.402;6.778;2023-03-31T03:47:31;5.20;;;0.98;;
7783;SDS011;19359;51.402;6.778;2023-03-31T03:50:00;11.38;;;1.15;;
7783;SDS011;19359;51.402;6.778;2023-03-31T03:52:27;8.40;;;1.50;;
7783;SDS011;19359;51.402;6.778;2023-03-31T03:54:53;8.32;;;1.08;;
7783;SDS011;19359;51.402;6.778;2023-03-31T03:57:20;8.63;;;1.02;;
7783;SDS011;19359;51.402;6.778;2023-03-31T03:59:47;12.90;;;1.55;;
7783;SDS011;19359;51.402;6.778;2023-03-31T04:02:14;8.40;;;1.83;;
7783;SDS011;19359;51.402;6.778;2023-03-31T04:04:41;10.45;;;1.60;;
7783;SDS011;19359;51.402;6.778;2023-03-31T04:07:09;11.20;;;1.70;;
7783;SDS011;19359;51.402;6.778;2023-03-31T04:09:35;6.85;;;1.58;;
7783;SDS011;19359;51.402;6.778;2023-03-31T04:12:02;6.45;;;1.55;;
7783;SDS011;19359;51.402;6.778;2023-03-31T04:14:29;7.40;;;1.30;;
7783;SDS011;19359;51.402;6.778;2023-03-31T04:16:56;5.63;;;1.65;;
7783;SDS011;19359;51.402;6.778;2023-03-31T04:19:23;9.93;;;1.50;;
7783;SDS011;19359;51.402;6.778;2023-03-31T04:21:51;10.65;;;1.98;;
7783;SDS011;19359;51.402;6.778;2023-03-31T04:24:24;2.92;;;1.60;;
7783;SDS011;19359;51.402;6.778;2023-03-31T04:26:57;3.28;;;1.10;;
7783;SDS011;19359;51.402;6.778;2023-03-31T04:29:24;9.38;;;1.50;;
7783;SDS011;19359;51.402;6.778;2023-03-31T04:31:51;9.82;;;1.90;;
7783;SDS011;19359;51.402;6.778;2023-03-31T04:34:23;3.85;;;1.30;;
7783;SDS011;19359;51.402;6.778;2023-03-31T04:36:58;9.00;;;0.90;;
7783;SDS011;19359;51.402;6.778;2023-03-31T04:39:28;6.30;;;1.55;;
7783;SDS011;19359;51.402;6.778;2023-03-31T04:41:56;3.60;;;1.40;;
7783;SDS011;19359;51.402;6.778;2023-03-31T04:44:22;3.53;;;0.98;;
7783;SDS011;19359;51.402;6.778;2023-03-31T04:46:50;11.30;;;1.15;;
7783;SDS011;19359;51.402;6.778;2023-03-31T04:49:17;3.65;;;1.35;;
7783;SDS011;19359;51.402;6.778;2023-03-31T04:51:43;3.50;;;1.00;;
7783;SDS011;19359;51.402;6.778;2023-03-31T04:54:10;5.95;;;1.60;;
7783;SDS011;19359;51.402;6.778;2023-03-31T04:56:39;6.70;;;1.67;;
7783;SDS011;19359;51.402;6.778;2023-03-31T04:59:05;7.40;;;1.63;;
7783;SDS011;19359;51.402;6.778;2023-03-31T05:01:32;7.10;;;1.33;;
7783;SDS011;19359;51.402;6.778;2023-03-31T05:04:00;5.22;;;1.10;;
7783;SDS011;19359;51.402;6.778;2023-03-31T05:06:27;7.57;;;1.23;;
7783;SDS011;19359;51.402;6.778;2023-03-31T05:08:54;7.30;;;0.95;;
7783;SDS011;19359;51.402;6.778;2023-03-31T05:11:21;4.47;;;1.10;;
7783;SDS011;19359;51.402;6.778;2023-03-31T05:13:49;3.38;;;1.05;;
7783;SDS011;19359;51.402;6.778;2023-03-31T05:16:16;5.03;;;1.10;;
7783;SDS011;19359;51.402;6.778;2023-03-31T05:18:42;1.80;;;0.98;;
7783;SDS011;19359;51.402;6.778;2023-03-31T05:21:11;4.32;;;1.52;;
7783;SDS011;19359;51.402;6.778;2023-03-31T05:23:38;5.15;;;1.25;;
7783;SDS011;19359;51.402;6.778;2023-03-31T05:26:05;5.13;;;1.25;;
7783;SDS011;19359;51.402;6.778;2023-03-31T05:28:32;6.03;;;1.13;;
7783;SDS011;19359;51.402;6.778;2023-03-31T05:31:02;2.35;;;1.08;;
7783;SDS011;19359;51.402;6.778;2023-03-31T05:33:29;2.20;;;0.75;;
7783;SDS011;19359;51.402;6.778;2023-03-31T05:35:57;6.68;;;0.88;;
7783;SDS011;19359;51.402;6.778;2023-03-31T05:38:25;2.92;;;0.80;;
7783;SDS011;19359;51.402;6.778;2023-03-31T05:40:55;2.17;;;0.68;;
7783;SDS011;19359;51.402;6.778;2023-03-31T05:43:22;6.40;;;1.25;;
7783;SDS011;19359;51.402;6.778;2023-03-31T05:45:48;3.38;;;0.77;;
7783;SDS011;19359;51.402;6.778;2023-03-31T05:48:16;1.55;;;0.82;;
7783;SDS011;19359;51.402;6.778;2023-03-31T05:50:43;3.03;;;0.60;;
7783;SDS011;19359;51.402;6.778;2023-03-31T05:53:10;0.73;;;0.60;;
7783;SDS011;19359;51.402;6.778;2023-03-31T05:55:37;4.35;;;0.60;;
7783;SDS011;19359;51.402;6.778;2023-03-31T05:58:04;10.95;;;0.93;;
7783;SDS011;19359;51.402;6.778;2023-03-31T06:00:32;3.08;;;0.88;;
7783;SDS011;19359;51.402;6.778;2023-03-31T06:03:00;4.32;;;0.50;;
7783;SDS011;19359;51.402;6.778;2023-03-31T06:05:28;4.97;;;1.10;;
7783;SDS011;19359;51.402;6.778;2023-03-31T06:07:55;5.47;;;0.85;;
7783;SDS011;19359;51.402;6.778;2023-03-31T06:10:22;1.88;;;0.60;;
7783;SDS011;19359;51.402;6.778;2023-03-31T06:12:48;7.38;;;0.80;;
7783;SDS011;19359;51.402;6.778;2023-03-31T06:15:15;1.75;;;1.23;;
7783;SDS011;19359;51.402;6.778;2023-03-31T06:17:42;1.63;;;0.70;;
7783;SDS011;19359;51.402;6.778;2023-03-31T06:20:09;4.43;;;1.08;;
7783;SDS011;19359;51.402;6.778;2023-03-31T06:22:37;2.08;;;0.70;;
7783;SDS011;19359;51.402;6.778;2023-03-31T06:25:04;2.67;;;0.70;;
7783;SDS011;19359;51.402;6.778;2023-03-31T06:27:31;5.38;;;1.00;;
7783;SDS011;19359;51.402;6.778;2023-03-31T06:29:58;6.13;;;1.10;;
7783;SDS011;19359;51.402;6.778;2023-03-31T06:32:25;3.83;;;0.80;;
7783;SDS011;19359;51.402;6.778;2023-03-31T06:34:51;6.65;;;1.35;;
7783;SDS011;19359;51.402;6.778;2023-03-31T06:37:18;7.28;;;1.23;;
7783;SDS011;19359;51.402;6.778;2023-03-31T06:39:46;3.42;;;1.30;;
7783;SDS011;19359;51.402;6.778;2023-03-31T06:42:14;2.97;;;0.77;;
7783;SDS011;19359;51.402;6.778;2023-03-31T06:44:41;4.30;;;1.17;;
7783;SDS011;19359;51.402;6.778;2023-03-31T06:47:08;6.35;;;0.88;;
7783;SDS011;19359;51.402;6.778;2023-03-31T06:49:34;3.33;;;1.10;;
7783;SDS011;19359;51.402;6.778;2023-03-31T06:52:01;6.32;;;1.40;;
7783;SDS011;19359;51.402;6.778;2023-03-31T06:54:28;5.70;;;1.08;;
7783;SDS011;19359;51.402;6.778;2023-03-31T06:56:56;4.03;;;1.27;;
7783;SDS011;19359;51.402;6.778;2023-03-31T06:59:22;5.20;;;1.30;;
7783;SDS011;19359;51.402;6.778;2023-03-31T07:01:49;2.70;;;1.17;;
7783;SDS011;19359;51.402;6.778;2023-03-31T07:04:16;9.35;;;1.23;;
7783;SDS011;19359;51.402;6.778;2023-03-31T07:06:43;5.00;;;0.85;;
7783;SDS011;19359;51.402;6.778;2023-03-31T07:09:09;8.15;;;1.30;;
7783;SDS011;19359;51.402;6.778;2023-03-31T07:11:36;6.63;;;1.13;;
7783;SDS011;19359;51.402;6.778;2023-03-31T07:14:04;2.58;;;1.23;;
7783;SDS011;19359;51.402;6.778;2023-03-31T07:16:31;3.10;;;1.38;;
7783;SDS011;19359;51.402;6.778;2023-03-31T07:18:58;4.15;;;1.40;;
7783;SDS011;19359;51.402;6.778;2023-03-31T07:21:28;6.45;;;1.13;;
7783;SDS011;19359;51.402;6.778;2023-03-31T07:23:55;6.32;;;1.40;;
7783;SDS011;19359;51.402;6.778;2023-03-31T07:26:22;6.20;;;1.10;;
7783;SDS011;19359;51.402;6.778;2023-03-31T07:28:49;2.72;;;0.93;;
7783;SDS011;19359;51.402;6.778;2023-03-31T07:31:17;2.72;;;1.00;;
7783;SDS011;19359;51.402;6.778;2023-03-31T07:33:44;7.88;;;1.33;;
7783;SDS011;19359;51.402;6.778;2023-03-31T07:36:10;5.63;;;1.60;;
7783;SDS011;19359;51.402;6.778;2023-03-31T07:38:37;7.18;;;1.55;;
7783;SDS011;19359;51.402;6.778;2023-03-31T07:41:05;4.40;;;1.08;;
7783;SDS011;19359;51.402;6.778;2023-03-31T07:43:35;7.25;;;1.10;;
7783;SDS011;19359;51.402;6.778;2023-03-31T07:46:02;3.92;;;1.48;;
7783;SDS011;19359;51.402;6.778;2023-03-31T07:48:32;1.92;;;1.30;;
7783;SDS011;19359;51.402;6.778;2023-03-31T07:50:59;5.05;;;1.25;;
7783;SDS011;19359;51.402;6.778;2023-03-31T07:53:26;5.38;;;1.23;;
7783;SDS011;19359;51.402;6.778;2023-03-31T07:55:53;4.10;;;1.05;;
7783;SDS011;19359;51.402;6.778;2023-03-31T07:58:19;2.55;;;1.10;;
7783;SDS011;19359;51.402;6.778;2023-03-31T08:00:46;3.13;;;0.80;;
7783;SDS011;19359;51.402;6.778;2023-03-31T08:03:13;5.85;;;1.10;;
7783;SDS011;19359;51.402;6.778;2023-03-31T08:05:41;3.80;;;1.33;;
7783;SDS011;19359;51.402;6.778;2023-03-31T08:08:07;4.47;;;1.13;;
7783;SDS011;19359;51.402;6.778;2023-03-31T08:10:34;7.32;;;1.35;;
7783;SDS011;19359;51.402;6.778;2023-03-31T08:13:01;3.35;;;1.23;;
7783;SDS011;19359;51.402;6.778;2023-03-31T08:15:28;2.22;;;1.40;;
7783;SDS011;19359;51.402;6.778;2023-03-31T08:17:55;6.85;;;2.20;;
7783;SDS011;19359;51.402;6.778;2023-03-31T08:20:22;2.40;;;0.82;;
7783;SDS011;19359;51.402;6.778;2023-03-31T08:22:50;4.22;;;0.98;;
7783;SDS011;19359;51.402;6.778;2023-03-31T08:25:17;4.97;;;1.25;;
7783;SDS011;19359;51.402;6.778;2023-03-31T08:27:44;5.25;;;0.80;;
7783;SDS011;19359;51.402;6.778;2023-03-31T08:30:15;2.65;;;0.80;;
7783;SDS011;19359;51.402;6.778;2023-03-31T08:32:43;5.68;;;1.15;;
7783;SDS011;19359;51.402;6.778;2023-03-31T08:35:10;3.17;;;1.13;;
7783;SDS011;19359;51.402;6.778;2023-03-31T08:37:37;4.05;;;0.82;;
7783;SDS011;19359;51.402;6.778;2023-03-31T08:40:06;3.55;;;1.20;;
7783;SDS011;19359;51.402;6.778;2023-03-31T08:42:40;10.65;;;1.95;;
7783;SDS011;19359;51.402;6.778;2023-03-31T08:45:13;5.63;;;1.05;;
7783;SDS011;19359;51.402;6.778;2023-03-31T08:47:45;3.72;;;0.93;;
7783;SDS011;19359;51.402;6.778;2023-03-31T08:50:18;4.18;;;1.02;;
7783;SDS011;19359;51.402;6.778;2023-03-31T08:52:49;4.35;;;1.23;;
7783;SDS011;19359;51.402;6.778;2023-03-31T08:55:21;3.65;;;0.77;;
7783;SDS011;19359;51.402;6.778;2023-03-31T08:57:54;3.65;;;1.10;;
7783;SDS011;19359;51.402;6.778;2023-03-31T09:00:25;3.17;;;0.88;;
7783;SDS011;19359;51.402;6.778;2023-03-31T09:02:54;5.95;;;1.10;;
7783;SDS011;19359;51.402;6.778;2023-03-31T09:05:30;2.63;;;1.00;;
7783;SDS011;19359;51.402;6.778;2023-03-31T09:08:11;4.32;;;0.63;;
7783;SDS011;19359;51.402;6.778;2023-03-31T09:10:49;5.90;;;1.60;;
7783;SDS011;19359;51.402;6.778;2023-03-31T09:13:29;4.60;;;1.15;;
7783;SDS011;19359;51.402;6.778;2023-03-31T09:16:23;8.43;;;1.15;;
7783;SDS011;19359;51.402;6.778;2023-03-31T09:18:57;6.28;;;1.40;;
7783;SDS011;19359;51.402;6.778;2023-03-31T09:21:26;10.52;;;1.15;;
7783;SDS011;19359;51.402;6.778;2023-03-31T09:23:57;5.25;;;1.00;;
7783;SDS011;19359;51.402;6.778;2023-03-31T09:26:31;11.50;;;1.70;;
7783;SDS011;19359;51.402;6.778;2023-03-31T09:29:03;6.20;;;2.00;;
7783;SDS011;19359;51.402;6.778;2023-03-31T09:31:33;13.00;;;2.70;;
7783;SDS011;19359;51.402;6.778;2023-03-31T09:34:00;5.50;;;1.20;;
7783;SDS011;19359;51.402;6.778;2023-03-31T09:36:38;9.38;;;1.10;;
7783;SDS011;19359;51.402;6.778;2023-03-31T09:39:05;8.93;;;1.67;;
7783;SDS011;19359;51.402;6.778;2023-03-31T09:41:33;13.35;;;1.77;;
7783;SDS011;19359;51.402;6.778;2023-03-31T09:44:00;6.80;;;1.33;;
7783;SDS011;19359;51.402;6.778;2023-03-31T09:46:28;6.95;;;1.50;;
7783;SDS011;19359;51.402;6.778;2023-03-31T09:48:57;8.05;;;1.40;;
7783;SDS011;19359;51.402;6.778;2023-03-31T09:51:29;4.13;;;1.13;;
7783;SDS011;19359;51.402;6.778;2023-03-31T09:54:01;8.30;;;1.23;;
7783;SDS011;19359;51.402;6.778;2023-03-31T09:56:46;1.75;;;1.23;;
7783;SDS011;19359;51.402;6.778;2023-03-31T09:59:18;10.05;;;1.13;;
7783;SDS011;19359;51.402;6.778;2023-03-31T10:01:45;7.03;;;1.45;;
7783;SDS011;19359;51.402;6.778;2023-03-31T10:04:18;6.45;;;1.15;;
7783;SDS011;19359;51.402;6.778;2023-03-31T10:06:47;8.07;;;1.20;;
7783;SDS011;19359;51.402;6.778;2023-03-31T10:09:17;4.50;;;1.05;;
7783;SDS011;19359;51.402;6.778;2023-03-31T10:11:53;8.98;;;2.28;;
7783;SDS011;19359;51.402;6.778;2023-03-31T10:14:26;2.33;;;1.02;;
7783;SDS011;19359;51.402;6.778;2023-03-31T10:17:01;5.13;;;1.27;;
7783;SDS011;19359;51.402;6.778;2023-03-31T10:19:31;8.68;;;1.30;;
7783;SDS011;19359;51.402;6.778;2023-03-31T10:22:00;7.82;;;1.33;;
7783;SDS011;19359;51.402;6.778;2023-03-31T10:24:35;9.30;;;2.38;;
7783;SDS011;19359;51.402;6.778;2023-03-31T10:27:04;6.93;;;1.40;;
7783;SDS011;19359;51.402;6.778;2023-03-31T10:29:38;8.57;;;2.17;;
7783;SDS011;19359;51.402;6.778;2023-03-31T10:32:08;13.70;;;3.03;;
7783;SDS011;19359;51.402;6.778;2023-03-31T10:34:43;15.50;;;3.30;;
7783;SDS011;19359;51.402;6.778;2023-03-31T10:37:11;16.35;;;3.42;;
7783;SDS011;19359;51.402;6.778;2023-03-31T10:39:42;8.88;;;2.92;;
7783;SDS011;19359;51.402;6.778;2023-03-31T10:42:14;11.15;;;3.28;;
7783;SDS011;19359;51.402;6.778;2023-03-31T10:44:46;10.70;;;2.88;;
7783;SDS011;19359;51.402;6.778;2023-03-31T10:47:17;9.27;;;2.42;;
7783;SDS011;19359;51.402;6.778;2023-03-31T10:49:44;10.15;;;1.70;;
7783;SDS011;19359;51.402;6.778;2023-03-31T10:52:16;6.20;;;1.77;;
7783;SDS011;19359;51.402;6.778;2023-03-31T10:54:48;6.40;;;1.27;;
7783;SDS011;19359;51.402;6.778;2023-03-31T10:57:20;12.38;;;1.63;;
7783;SDS011;19359;51.402;6.778;2023-03-31T11:00:02;9.90;;;2.15;;
7783;SDS011;19359;51.402;6.778;2023-03-31T11:03:06;4.25;;;1.25;;
7783;SDS011;19359;51.402;6.778;2023-03-31T11:05:48;16.35;;;3.00;;
7783;SDS011;19359;51.402;6.778;2023-03-31T11:08:20;9.48;;;2.30;;
7783;SDS011;19359;51.402;6.778;2023-03-31T11:11:03;3.35;;;0.95;;
7783;SDS011;19359;51.402;6.778;2023-03-31T11:13:40;3.53;;;0.65;;
7783;SDS011;19359;51.402;6.778;2023-03-31T11:16:15;2.65;;;0.47;;
7783;SDS011;19359;51.402;6.778;2023-03-31T11:18:54;4.47;;;0.60;;
7783;SDS011;19359;51.402;6.778;2023-03-31T11:21:32;1.95;;;0.75;;
7783;SDS011;19359;51.402;6.778;2023-03-31T11:24:09;4.60;;;0.82;;
7783;SDS011;19359;51.402;6.778;2023-03-31T11:26:48;5.93;;;1.40;;
7783;SDS011;19359;51.402;6.778;2023-03-31T11:29:26;3.83;;;1.45;;
7783;SDS011;19359;51.402;6.778;2023-03-31T11:32:03;6.05;;;1.92;;
7783;SDS011;19359;51.402;6.778;2023-03-31T11:34:54;2.55;;;1.42;;
7783;SDS011;19359;51.402;6.778;2023-03-31T11:37:36;4.15;;;0.60;;
7783;SDS011;19359;51.402;6.778;2023-03-31T11:43:09;2.67;;;0.50;;
7783;SDS011;19359;51.402;6.778;2023-03-31T11:45:44;2.15;;;0.77;;
7783;SDS011;19359;51.402;6.778;2023-03-31T11:48:16;4.30;;;1.70;;
7783;SDS011;19359;51.402;6.778;2023-03-31T11:50:50;3.35;;;0.55;;
7783;SDS011;19359;51.402;6.778;2023-03-31T11:53:17;1.63;;;0.55;;
7783;SDS011;19359;51.402;6.778;2023-03-31T11:55:49;2.30;;;1.15;;
7783;SDS011;19359;51.402;6.778;2023-03-31T11:58:19;4.15;;;1.02;;
7783;SDS011;19359;51.402;6.778;2023-03-31T12:00:51;9.23;;;1.60;;
7783;SDS011;19359;51.402;6.778;2023-03-31T12:03:23;7.88;;;1.20;;
7783;SDS011;19359;51.402;6.778;2023-03-31T12:06:05;8.05;;;1.15;;
7783;SDS011;19359;51.402;6.778;2023-03-31T12:08:42;4.20;;;1.10;;
7783;SDS011;19359;51.402;6.778;2023-03-31T12:11:17;3.42;;;1.02;;
7783;SDS011;19359;51.402;6.778;2023-03-31T12:13:48;9.52;;;1.23;;
7783;SDS011;19359;51.402;6.778;2023-03-31T12:16:21;6.93;;;0.93;;
7783;SDS011;19359;51.402;6.778;2023-03-31T12:18:55;19.30;;;2.22;;
7783;SDS011;19359;51.402;6.778;2023-03-31T12:21:27;12.32;;;3.65;;
7783;SDS011;19359;51.402;6.778;2023-03-31T12:23:55;10.40;;;2.55;;
7783;SDS011;19359;51.402;6.778;2023-03-31T12:26:28;9.63;;;1.80;;
7783;SDS011;19359;51.402;6.778;2023-03-31T12:29:03;4.22;;;2.00;;
7783;SDS011;19359;51.402;6.778;2023-03-31T12:31:38;11.88;;;2.20;;
7783;SDS011;19359;51.402;6.778;2023-03-31T12:34:09;11.38;;;1.63;;
7783;SDS011;19359;51.402;6.778;2023-03-31T12:36:44;14.73;;;1.70;;
7783;SDS011;19359;51.402;6.778;2023-03-31T12:39:20;4.95;;;1.38;;
7783;SDS011;19359;51.402;6.778;2023-03-31T12:41:58;7.30;;;1.77;;
7783;SDS011;19359;51.402;6.778;2023-03-31T12:44:37;4.75;;;1.52;;
7783;SDS011;19359;51.402;6.778;2023-03-31T12:50:14;5.47;;;1.23;;
7783;SDS011;19359;51.402;6.778;2023-03-31T12:53:02;10.73;;;1.48;;
7783;SDS011;19359;51.402;6.778;2023-03-31T12:55:39;9.10;;;1.50;;
7783;SDS011;19359;51.402;6.778;2023-03-31T13:01:02;5.45;;;1.48;;
7783;SDS011;19359;51.402;6.778;2023-03-31T13:09:03;7.70;;;1.02;;
7783;SDS011;19359;51.402;6.778;2023-03-31T13:11:36;5.13;;;1.40;;
7783;SDS011;19359;51.402;6.778;2023-03-31T13:14:05;6.88;;;1.17;;
7783;SDS011;19359;51.402;6.778;2023-03-31T13:16:38;3.47;;;1.30;;
7783;SDS011;19359;51.402;6.778;2023-03-31T13:19:08;6.63;;;1.08;;
7783;SDS011;19359;51.402;6.778;2023-03-31T13:21:50;4.97;;;1.10;;
7783;SDS011;19359;51.402;6.778;2023-03-31T13:24:20;4.03;;;0.75;;
7783;SDS011;19359;51.402;6.778;2023-03-31T13:26:48;4.68;;;0.82;;
7783;SDS011;19359;51.402;6.778;2023-03-31T13:29:19;3.95;;;1.02;;
7783;SDS011;19359;51.402;6.778;2023-03-31T13:34:47;6.28;;;1.20;;
7783;SDS011;19359;51.402;6.778;2023-03-31T13:37:23;5.72;;;0.90;;
7783;SDS011;19359;51.402;6.778;2023-03-31T13:40:29;6.57;;;1.63;;
7783;SDS011;19359;51.402;6.778;2023-03-31T13:43:30;3.33;;;0.50;;
7783;SDS011;19359;51.402;6.778;2023-03-31T13:46:25;4.70;;;0.65;;
7783;SDS011;19359;51.402;6.778;2023-03-31T13:49:24;3.90;;;0.90;;
7783;SDS011;19359;51.402;6.778;2023-03-31T13:52:09;1.35;;;0.50;;
7783;SDS011;19359;51.402;6.778;2023-03-31T13:57:37;11.95;;;2.05;;
7783;SDS011;19359;51.402;6.778;2023-03-31T14:00:25;6.57;;;2.97;;
7783;SDS011;19359;51.402;6.778;2023-03-31T14:03:04;2.38;;;0.77;;
7783;SDS011;19359;51.402;6.778;2023-03-31T14:05:58;2.55;;;0.65;;
7783;SDS011;19359;51.402;6.778;2023-03-31T14:08:35;4.70;;;0.77;;
7783;SDS011;19359;51.402;6.778;2023-03-31T14:11:14;4.32;;;0.73;;
7783;SDS011;19359;51.402;6.778;2023-03-31T14:13:42;0.85;;;0.45;;
7783;SDS011;19359;51.402;6.778;2023-03-31T14:16:09;6.90;;;1.42;;
7783;SDS011;19359;51.402;6.778;2023-03-31T14:18:38;5.88;;;0.73;;
7783;SDS011;19359;51.402;6.778;2023-03-31T14:21:14;4.15;;;0.57;;
7783;SDS011;19359;51.402;6.778;2023-03-31T14:23:51;2.95;;;0.70;;
7783;SDS011;19359;51.402;6.778;2023-03-31T14:26:31;5.47;;;0.90;;
7783;SDS011;19359;51.402;6.778;2023-03-31T14:29:11;2.33;;;0.73;;
7783;SDS011;19359;51.402;6.778;2023-03-31T14:31:46;1.33;;;0.50;;
7783;SDS011;19359;51.402;6.778;2023-03-31T14:34:33;2.30;;;0.40;;
7783;SDS011;19359;51.402;6.778;2023-03-31T14:37:11;3.97;;;0.50;;
7783;SDS011;19359;51.402;6.778;2023-03-31T14:39:43;3.25;;;0.50;;
7783;SDS011;19359;51.402;6.778;2023-03-31T14:42:12;0.93;;;0.82;;
7783;SDS011;19359;51.402;6.778;2023-03-31T14:44:41;2.25;;;1.25;;
7783;SDS011;19359;51.402;6.778;2023-03-31T14:47:12;6.68;;;0.63;;
7783;SDS011;19359;51.402;6.778;2023-03-31T14:49:40;3.50;;;0.47;;
7783;SDS011;19359;51.402;6.778;2023-03-31T14:52:12;1.38;;;0.40;;
7783;SDS011;19359;51.402;6.778;2023-03-31T14:54:44;0.63;;;0.63;;
7783;SDS011;19359;51.402;6.778;2023-03-31T14:57:12;7.28;;;0.80;;
7783;SDS011;19359;51.402;6.778;2023-03-31T14:59:43;6.00;;;0.95;;
7783;SDS011;19359;51.402;6.778;2023-03-31T15:02:12;8.98;;;2.13;;
7783;SDS011;19359;51.402;6.778;2023-03-31T15:04:40;9.07;;;1.45;;
7783;SDS011;19359;51.402;6.778;2023-03-31T15:07:12;2.35;;;0.60;;
7783;SDS011;19359;51.402;6.778;2023-03-31T15:09:41;2.72;;;0.55;;
7783;SDS011;19359;51.402;6.778;2023-03-31T15:12:14;4.20;;;0.75;;
7783;SDS011;19359;51.402;6.778;2023-03-31T15:14:43;5.00;;;1.85;;
7783;SDS011;19359;51.402;6.778;2023-03-31T15:17:16;14.80;;;3.17;;
7783;SDS011;19359;51.402;6.778;2023-03-31T15:19:44;3.80;;;1.95;;
7783;SDS011;19359;51.402;6.778;2023-03-31T15:22:13;3.90;;;1.10;;
7783;SDS011;19359;51.402;6.778;2023-03-31T15:24:42;1.63;;;0.43;;
7783;SDS011;19359;51.402;6.778;2023-03-31T15:27:12;1.40;;;0.55;;
7783;SDS011;19359;51.402;6.778;2023-03-31T15:29:43;5.95;;;0.98;;
7783;SDS011;19359;51.402;6.778;2023-03-31T15:32:13;1.63;;;0.70;;
7783;SDS011;19359;51.402;6.778;2023-03-31T15:34:42;0.60;;;0.30;;
7783;SDS011;19359;51.402;6.778;2023-03-31T15:37:10;1.38;;;0.45;;
7783;SDS011;19359;51.402;6.778;2023-03-31T15:39:37;0.93;;;0.40;;
7783;SDS011;19359;51.402;6.778;2023-03-31T15:42:10;2.55;;;0.57;;
7783;SDS011;19359;51.402;6.778;2023-03-31T15:44:38;4.53;;;1.95;;
7783;SDS011;19359;51.402;6.778;2023-03-31T15:47:16;1.55;;;0.40;;
7783;SDS011;19359;51.402;6.778;2023-03-31T15:49:47;2.90;;;0.52;;
7783;SDS011;19359;51.402;6.778;2023-03-31T15:52:27;0.20;;;0.20;;
7783;SDS011;19359;51.402;6.778;2023-03-31T15:54:57;8.80;;;0.40;;